sensor_id;sensor_type;location;lat;lon;timestamp;temperature;humidity
17948;DHT22;9099;47.958;11.366;2022-11-15T00:01:30;7.30;99.90
17948;DHT22;9099;47.958;11.366;2022-11-15T00:03:57;7.30;99.90
17948;DHT22;9099;47.958;11.366;2022-11-15T00:06:25;7.30;99.90
17948;DHT22;9099;47.958;11.366;2022-11-15T00:08:52;7.20;99.90
17948;DHT22;9099;47.958;11.366;2022-11-15T00:11:19;7.20;99.90
17948;DHT22;9099;47.958;11.366;2022-11-15T00:13:45;7.10;99.90
17948;DHT22;9099;47.958;11.366;2022-11-15T00:16:12;7.10;99.90
17948;DHT22;9099;47.958;11.366;2022-11-15T00:18:39;7.10;99.90
17948;DHT22;9099;47.958;11.366;2022-11-15T00:21:09;7.10;99.90
17948;DHT22;9099;47.958;11.366;2022-11-15T00:23:38;7.10;99.90
17948;DHT22;9099;47.958;11.366;2022-11-15T00:26:05;7.00;99.90
17948;DHT22;9099;47.958;11.366;2022-11-15T00:28:32;6.90;99.90
17948;DHT22;9099;47.958;11.366;2022-11-15T00:31:03;6.90;99.90
17948;DHT22;9099;47.958;11.366;2022-11-15T00:33:30;6.90;99.90
17948;DHT22;9099;47.958;11.366;2022-11-15T00:36:00;6.80;99.90
17948;DHT22;9099;47.958;11.366;2022-11-15T00:38:31;6.80;99.90
17948;DHT22;9099;47.958;11.366;2022-11-15T00:41:00;6.80;99.90
17948;DHT22;9099;47.958;11.366;2022-11-15T00:43:27;6.80;99.90
17948;DHT22;9099;47.958;11.366;2022-11-15T00:45:54;6.80;99.90
17948;DHT22;9099;47.958;11.366;2022-11-15T00:48:21;6.80;99.90
17948;DHT22;9099;47.958;11.366;2022-11-15T00:50:48;6.80;99.90
17948;DHT22;9099;47.958;11.366;2022-11-15T00:53:15;6.80;99.90
17948;DHT22;9099;47.958;11.366;2022-11-15T00:55:43;6.70;99.90
17948;DHT22;9099;47.958;11.366;2022-11-15T00:58:11;6.60;99.90
17948;DHT22;9099;47.958;11.366;2022-11-15T01:00:38;6.60;99.90
17948;DHT22;9099;47.958;11.366;2022-11-15T01:03:05;6.60;99.90
17948;DHT22;9099;47.958;11.366;2022-11-15T01:05:32;6.60;99.90
17948;DHT22;9099;47.958;11.366;2022-11-15T01:07:58;6.50;99.90
17948;DHT22;9099;47.958;11.366;2022-11-15T01:10:25;6.40;99.90
17948;DHT22;9099;47.958;11.366;2022-11-15T01:12:52;6.40;99.90
17948;DHT22;9099;47.958;11.366;2022-11-15T01:15:20;6.40;99.90
17948;DHT22;9099;47.958;11.366;2022-11-15T01:17:47;6.50;99.90
17948;DHT22;9099;47.958;11.366;2022-11-15T01:20:14;6.50;99.90
17948;DHT22;9099;47.958;11.366;2022-11-15T01:22:41;6.40;99.90
17948;DHT22;9099;47.958;11.366;2022-11-15T01:25:08;6.40;99.90
17948;DHT22;9099;47.958;11.366;2022-11-15T01:27:34;6.40;99.90
17948;DHT22;9099;47.958;11.366;2022-11-15T01:30:01;6.40;99.90
17948;DHT22;9099;47.958;11.366;2022-11-15T01:32:30;6.40;99.90
17948;DHT22;9099;47.958;11.366;2022-11-15T01:34:58;6.40;99.90
17948;DHT22;9099;47.958;11.366;2022-11-15T01:37:24;6.50;99.90
17948;DHT22;9099;47.958;11.366;2022-11-15T01:39:51;6.50;99.90
17948;DHT22;9099;47.958;11.366;2022-11-15T01:42:18;6.50;99.90
17948;DHT22;9099;47.958;11.366;2022-11-15T01:44:48;6.60;99.90
17948;DHT22;9099;47.958;11.366;2022-11-15T01:47:17;6.60;99.90
17948;DHT22;9099;47.958;11.366;2022-11-15T01:49:50;6.60;99.90
17948;DHT22;9099;47.958;11.366;2022-11-15T01:52:19;6.60;99.90
17948;DHT22;9099;47.958;11.366;2022-11-15T01:54:50;6.60;99.90
17948;DHT22;9099;47.958;11.366;2022-11-15T01:57:18;6.60;99.90
17948;DHT22;9099;47.958;11.366;2022-11-15T01:59:45;6.60;99.90
17948;DHT22;9099;47.958;11.366;2022-11-15T02:02:13;6.60;99.90
17948;DHT22;9099;47.958;11.366;2022-11-15T02:04:41;6.60;99.90
17948;DHT22;9099;47.958;11.366;2022-11-15T02:07:12;6.50;99.90
17948;DHT22;9099;47.958;11.366;2022-11-15T02:09:40;6.50;99.90
17948;DHT22;9099;47.958;11.366;2022-11-15T02:12:07;6.40;99.90
17948;DHT22;9099;47.958;11.366;2022-11-15T02:14:38;6.40;99.90
17948;DHT22;9099;47.958;11.366;2022-11-15T02:17:23;6.40;99.90
17948;DHT22;9099;47.958;11.366;2022-11-15T02:20:20;6.40;99.90
17948;DHT22;9099;47.958;11.366;2022-11-15T02:23:16;6.40;99.90
17948;DHT22;9099;47.958;11.366;2022-11-15T02:25:55;6.40;99.90
17948;DHT22;9099;47.958;11.366;2022-11-15T02:28:44;6.40;99.90
17948;DHT22;9099;47.958;11.366;2022-11-15T02:31:20;6.40;99.90
17948;DHT22;9099;47.958;11.366;2022-11-15T02:33:54;6.40;99.90
17948;DHT22;9099;47.958;11.366;2022-11-15T02:36:34;6.40;99.90
17948;DHT22;9099;47.958;11.366;2022-11-15T02:39:08;6.40;99.90
17948;DHT22;9099;47.958;11.366;2022-11-15T02:41:41;6.40;99.90
17948;DHT22;9099;47.958;11.366;2022-11-15T02:44:14;6.40;99.90
17948;DHT22;9099;47.958;11.366;2022-11-15T02:46:46;6.40;99.90
17948;DHT22;9099;47.958;11.366;2022-11-15T02:49:33;6.40;99.90
17948;DHT22;9099;47.958;11.366;2022-11-15T02:52:01;6.30;99.90
17948;DHT22;9099;47.958;11.366;2022-11-15T02:54:30;6.20;99.90
17948;DHT22;9099;47.958;11.366;2022-11-15T02:57:12;6.10;99.90
17948;DHT22;9099;47.958;11.366;2022-11-15T03:02:51;6.10;99.90
17948;DHT22;9099;47.958;11.366;2022-11-15T03:05:26;6.10;99.90
17948;DHT22;9099;47.958;11.366;2022-11-15T03:08:00;6.10;99.90
17948;DHT22;9099;47.958;11.366;2022-11-15T03:10:36;6.10;99.90
17948;DHT22;9099;47.958;11.366;2022-11-15T03:13:19;6.10;99.90
17948;DHT22;9099;47.958;11.366;2022-11-15T03:15:52;6.10;99.90
17948;DHT22;9099;47.958;11.366;2022-11-15T03:18:24;6.20;99.90
17948;DHT22;9099;47.958;11.366;2022-11-15T03:20:55;6.30;99.90
17948;DHT22;9099;47.958;11.366;2022-11-15T03:23:24;6.20;99.90
17948;DHT22;9099;47.958;11.366;2022-11-15T03:25:53;6.20;99.90
17948;DHT22;9099;47.958;11.366;2022-11-15T03:28:25;6.20;99.90
17948;DHT22;9099;47.958;11.366;2022-11-15T03:30:55;6.20;99.90
17948;DHT22;9099;47.958;11.366;2022-11-15T03:33:23;6.20;99.90
17948;DHT22;9099;47.958;11.366;2022-11-15T03:35:51;6.20;99.90
17948;DHT22;9099;47.958;11.366;2022-11-15T03:38:22;6.10;99.90
17948;DHT22;9099;47.958;11.366;2022-11-15T03:40:54;6.00;99.90
17948;DHT22;9099;47.958;11.366;2022-11-15T03:43:30;6.00;99.90
17948;DHT22;9099;47.958;11.366;2022-11-15T03:46:01;5.90;99.90
17948;DHT22;9099;47.958;11.366;2022-11-15T03:48:33;5.90;99.90
17948;DHT22;9099;47.958;11.366;2022-11-15T03:51:01;5.90;99.90
17948;DHT22;9099;47.958;11.366;2022-11-15T03:53:29;5.90;99.90
17948;DHT22;9099;47.958;11.366;2022-11-15T03:55:56;5.80;99.90
17948;DHT22;9099;47.958;11.366;2022-11-15T03:58:24;5.80;99.90
17948;DHT22;9099;47.958;11.366;2022-11-15T04:00:51;5.80;99.90
17948;DHT22;9099;47.958;11.366;2022-11-15T04:03:18;5.80;99.90
17948;DHT22;9099;47.958;11.366;2022-11-15T04:05:44;5.80;99.90
17948;DHT22;9099;47.958;11.366;2022-11-15T04:08:11;5.80;99.90
17948;DHT22;9099;47.958;11.366;2022-11-15T04:10:39;5.70;99.90
17948;DHT22;9099;47.958;11.366;2022-11-15T04:13:06;5.70;99.90
17948;DHT22;9099;47.958;11.366;2022-11-15T04:15:34;5.70;99.90
17948;DHT22;9099;47.958;11.366;2022-11-15T04:18:01;5.70;99.90
17948;DHT22;9099;47.958;11.366;2022-11-15T04:20:29;5.70;99.90
17948;DHT22;9099;47.958;11.366;2022-11-15T04:23:15;5.80;99.90
17948;DHT22;9099;47.958;11.366;2022-11-15T04:26:02;5.70;99.90
17948;DHT22;9099;47.958;11.366;2022-11-15T04:28:29;5.70;99.90
17948;DHT22;9099;47.958;11.366;2022-11-15T04:30:57;5.70;99.90
17948;DHT22;9099;47.958;11.366;2022-11-15T04:33:24;5.70;99.90
17948;DHT22;9099;47.958;11.366;2022-11-15T04:35:51;5.70;99.90
17948;DHT22;9099;47.958;11.366;2022-11-15T04:38:38;5.70;99.90
17948;DHT22;9099;47.958;11.366;2022-11-15T04:41:04;5.80;99.90
17948;DHT22;9099;47.958;11.366;2022-11-15T04:43:31;5.80;99.90
17948;DHT22;9099;47.958;11.366;2022-11-15T04:45:59;5.80;99.90
17948;DHT22;9099;47.958;11.366;2022-11-15T04:48:26;5.80;99.90
17948;DHT22;9099;47.958;11.366;2022-11-15T04:50:53;5.80;99.90
17948;DHT22;9099;47.958;11.366;2022-11-15T04:53:20;5.80;99.90
17948;DHT22;9099;47.958;11.366;2022-11-15T04:55:47;5.70;99.90
17948;DHT22;9099;47.958;11.366;2022-11-15T04:58:14;5.70;99.90
17948;DHT22;9099;47.958;11.366;2022-11-15T05:00:40;5.60;99.90
17948;DHT22;9099;47.958;11.366;2022-11-15T05:03:10;5.60;99.90
17948;DHT22;9099;47.958;11.366;2022-11-15T05:05:54;5.50;99.90
17948;DHT22;9099;47.958;11.366;2022-11-15T05:08:21;5.50;99.90
17948;DHT22;9099;47.958;11.366;2022-11-15T05:10:48;5.40;99.90
17948;DHT22;9099;47.958;11.366;2022-11-15T05:13:14;5.30;99.90
17948;DHT22;9099;47.958;11.366;2022-11-15T05:15:41;5.20;99.90
17948;DHT22;9099;47.958;11.366;2022-11-15T05:18:10;5.20;99.90
17948;DHT22;9099;47.958;11.366;2022-11-15T05:20:37;5.20;99.90
17948;DHT22;9099;47.958;11.366;2022-11-15T05:23:03;5.20;99.90
17948;DHT22;9099;47.958;11.366;2022-11-15T05:25:30;5.30;99.90
17948;DHT22;9099;47.958;11.366;2022-11-15T05:27:57;5.20;99.90
17948;DHT22;9099;47.958;11.366;2022-11-15T05:30:24;5.20;99.90
17948;DHT22;9099;47.958;11.366;2022-11-15T05:32:51;5.20;99.90
17948;DHT22;9099;47.958;11.366;2022-11-15T05:35:24;5.30;99.90
17948;DHT22;9099;47.958;11.366;2022-11-15T05:37:52;5.20;99.90
17948;DHT22;9099;47.958;11.366;2022-11-15T05:40:19;5.20;99.90
17948;DHT22;9099;47.958;11.366;2022-11-15T05:42:46;5.10;99.90
17948;DHT22;9099;47.958;11.366;2022-11-15T05:45:13;5.10;99.90
17948;DHT22;9099;47.958;11.366;2022-11-15T05:47:40;5.10;99.90
17948;DHT22;9099;47.958;11.366;2022-11-15T05:50:11;5.10;99.90
17948;DHT22;9099;47.958;11.366;2022-11-15T05:52:40;5.00;99.90
17948;DHT22;9099;47.958;11.366;2022-11-15T05:55:08;5.00;99.90
17948;DHT22;9099;47.958;11.366;2022-11-15T05:57:36;5.00;99.90
17948;DHT22;9099;47.958;11.366;2022-11-15T06:00:04;5.00;99.90
17948;DHT22;9099;47.958;11.366;2022-11-15T06:02:31;5.00;99.90
17948;DHT22;9099;47.958;11.366;2022-11-15T06:04:58;5.00;99.90
17948;DHT22;9099;47.958;11.366;2022-11-15T06:07:25;5.00;99.90
17948;DHT22;9099;47.958;11.366;2022-11-15T06:09:53;5.00;99.90
17948;DHT22;9099;47.958;11.366;2022-11-15T06:12:20;5.00;99.90
17948;DHT22;9099;47.958;11.366;2022-11-15T06:14:47;4.90;99.90
17948;DHT22;9099;47.958;11.366;2022-11-15T06:17:14;4.80;99.90
17948;DHT22;9099;47.958;11.366;2022-11-15T06:19:40;4.80;99.90
17948;DHT22;9099;47.958;11.366;2022-11-15T06:22:07;4.80;99.90
17948;DHT22;9099;47.958;11.366;2022-11-15T06:24:35;4.80;99.90
17948;DHT22;9099;47.958;11.366;2022-11-15T06:27:03;4.80;99.90
17948;DHT22;9099;47.958;11.366;2022-11-15T06:29:30;4.80;99.90
17948;DHT22;9099;47.958;11.366;2022-11-15T06:31:56;4.90;99.90
17948;DHT22;9099;47.958;11.366;2022-11-15T06:34:23;4.90;99.90
17948;DHT22;9099;47.958;11.366;2022-11-15T06:36:50;5.00;99.90
17948;DHT22;9099;47.958;11.366;2022-11-15T06:39:17;5.10;99.90
17948;DHT22;9099;47.958;11.366;2022-11-15T06:41:44;5.20;99.90
17948;DHT22;9099;47.958;11.366;2022-11-15T06:44:12;5.20;99.90
17948;DHT22;9099;47.958;11.366;2022-11-15T06:46:39;5.30;99.90
17948;DHT22;9099;47.958;11.366;2022-11-15T06:49:05;5.30;99.90
17948;DHT22;9099;47.958;11.366;2022-11-15T06:51:32;5.30;99.90
17948;DHT22;9099;47.958;11.366;2022-11-15T06:53:59;5.40;99.90
17948;DHT22;9099;47.958;11.366;2022-11-15T06:56:26;5.40;99.90
17948;DHT22;9099;47.958;11.366;2022-11-15T06:58:53;5.50;99.90
17948;DHT22;9099;47.958;11.366;2022-11-15T07:01:21;5.60;99.90
17948;DHT22;9099;47.958;11.366;2022-11-15T07:03:48;5.70;99.90
17948;DHT22;9099;47.958;11.366;2022-11-15T07:06:15;5.90;99.90
17948;DHT22;9099;47.958;11.366;2022-11-15T07:08:41;6.10;99.90
17948;DHT22;9099;47.958;11.366;2022-11-15T07:11:08;6.50;99.90
17948;DHT22;9099;47.958;11.366;2022-11-15T07:13:36;6.90;99.90
17948;DHT22;9099;47.958;11.366;2022-11-15T07:16:04;7.20;99.90
17948;DHT22;9099;47.958;11.366;2022-11-15T07:18:33;7.40;99.90
17948;DHT22;9099;47.958;11.366;2022-11-15T07:21:01;7.90;99.90
17948;DHT22;9099;47.958;11.366;2022-11-15T07:23:28;8.50;99.90
17948;DHT22;9099;47.958;11.366;2022-11-15T07:25:56;9.30;99.90
17948;DHT22;9099;47.958;11.366;2022-11-15T07:28:24;10.10;99.90
17948;DHT22;9099;47.958;11.366;2022-11-15T07:30:51;11.10;99.90
17948;DHT22;9099;47.958;11.366;2022-11-15T07:33:18;12.00;99.90
17948;DHT22;9099;47.958;11.366;2022-11-15T07:35:46;12.80;99.90
17948;DHT22;9099;47.958;11.366;2022-11-15T07:38:15;13.60;99.90
17948;DHT22;9099;47.958;11.366;2022-11-15T07:40:45;14.30;99.90
17948;DHT22;9099;47.958;11.366;2022-11-15T07:43:12;15.00;99.90
17948;DHT22;9099;47.958;11.366;2022-11-15T07:45:41;15.90;99.90
17948;DHT22;9099;47.958;11.366;2022-11-15T07:48:08;16.70;99.90
17948;DHT22;9099;47.958;11.366;2022-11-15T07:50:35;17.40;99.90
17948;DHT22;9099;47.958;11.366;2022-11-15T07:53:03;18.20;99.90
17948;DHT22;9099;47.958;11.366;2022-11-15T07:55:30;19.50;99.90
17948;DHT22;9099;47.958;11.366;2022-11-15T07:58:01;20.50;99.90
17948;DHT22;9099;47.958;11.366;2022-11-15T08:00:28;21.20;99.90
17948;DHT22;9099;47.958;11.366;2022-11-15T08:03:01;21.70;99.80
17948;DHT22;9099;47.958;11.366;2022-11-15T08:05:28;21.80;98.90
17948;DHT22;9099;47.958;11.366;2022-11-15T08:07:55;21.90;98.50
17948;DHT22;9099;47.958;11.366;2022-11-15T08:10:24;22.00;98.60
17948;DHT22;9099;47.958;11.366;2022-11-15T08:12:57;22.20;98.20
17948;DHT22;9099;47.958;11.366;2022-11-15T08:15:24;22.40;97.00
17948;DHT22;9099;47.958;11.366;2022-11-15T08:17:54;22.80;97.00
17948;DHT22;9099;47.958;11.366;2022-11-15T08:20:21;23.30;95.40
17948;DHT22;9099;47.958;11.366;2022-11-15T08:22:48;23.50;95.40
17948;DHT22;9099;47.958;11.366;2022-11-15T08:25:15;24.10;94.60
17948;DHT22;9099;47.958;11.366;2022-11-15T08:27:43;24.70;93.30
17948;DHT22;9099;47.958;11.366;2022-11-15T08:30:11;24.90;93.20
17948;DHT22;9099;47.958;11.366;2022-11-15T08:32:39;24.90;92.20
17948;DHT22;9099;47.958;11.366;2022-11-15T08:35:06;25.30;91.70
17948;DHT22;9099;47.958;11.366;2022-11-15T08:37:34;25.10;91.90
17948;DHT22;9099;47.958;11.366;2022-11-15T08:40:00;24.80;91.90
17948;DHT22;9099;47.958;11.366;2022-11-15T08:42:27;24.50;92.30
17948;DHT22;9099;47.958;11.366;2022-11-15T08:44:55;24.40;93.00
17948;DHT22;9099;47.958;11.366;2022-11-15T08:47:22;24.40;92.10
17948;DHT22;9099;47.958;11.366;2022-11-15T08:49:49;24.50;91.90
17948;DHT22;9099;47.958;11.366;2022-11-15T08:52:16;24.40;91.90
17948;DHT22;9099;47.958;11.366;2022-11-15T08:54:43;23.90;92.00
17948;DHT22;9099;47.958;11.366;2022-11-15T08:57:10;23.70;92.70
17948;DHT22;9099;47.958;11.366;2022-11-15T08:59:37;23.90;92.90
17948;DHT22;9099;47.958;11.366;2022-11-15T09:02:05;24.00;91.70
17948;DHT22;9099;47.958;11.366;2022-11-15T09:04:32;23.90;92.20
17948;DHT22;9099;47.958;11.366;2022-11-15T09:06:59;23.30;91.90
17948;DHT22;9099;47.958;11.366;2022-11-15T09:09:26;22.60;92.80
17948;DHT22;9099;47.958;11.366;2022-11-15T09:11:53;22.70;92.50
17948;DHT22;9099;47.958;11.366;2022-11-15T09:14:19;22.40;93.00
17948;DHT22;9099;47.958;11.366;2022-11-15T09:16:46;22.40;93.60
17948;DHT22;9099;47.958;11.366;2022-11-15T09:19:14;22.20;94.40
17948;DHT22;9099;47.958;11.366;2022-11-15T09:21:41;22.20;94.20
17948;DHT22;9099;47.958;11.366;2022-11-15T09:24:08;22.30;94.30
17948;DHT22;9099;47.958;11.366;2022-11-15T09:26:35;22.50;94.50
17948;DHT22;9099;47.958;11.366;2022-11-15T09:29:02;22.80;94.00
17948;DHT22;9099;47.958;11.366;2022-11-15T09:31:29;23.30;94.70
17948;DHT22;9099;47.958;11.366;2022-11-15T09:33:56;23.90;94.20
17948;DHT22;9099;47.958;11.366;2022-11-15T09:36:25;24.50;93.40
17948;DHT22;9099;47.958;11.366;2022-11-15T09:38:52;24.50;93.10
17948;DHT22;9099;47.958;11.366;2022-11-15T09:41:51;24.70;93.10
17948;DHT22;9099;47.958;11.366;2022-11-15T09:44:41;25.50;92.20
17948;DHT22;9099;47.958;11.366;2022-11-15T09:47:29;25.50;90.40
17948;DHT22;9099;47.958;11.366;2022-11-15T09:50:06;25.40;90.70
17948;DHT22;9099;47.958;11.366;2022-11-15T09:52:36;25.30;90.00
17948;DHT22;9099;47.958;11.366;2022-11-15T09:55:08;24.90;90.60
17948;DHT22;9099;47.958;11.366;2022-11-15T09:57:41;24.90;91.00
17948;DHT22;9099;47.958;11.366;2022-11-15T10:00:16;25.10;92.50
17948;DHT22;9099;47.958;11.366;2022-11-15T10:03:07;25.20;90.80
17948;DHT22;9099;47.958;11.366;2022-11-15T10:05:40;24.90;90.30
17948;DHT22;9099;47.958;11.366;2022-11-15T10:08:20;24.70;91.20
17948;DHT22;9099;47.958;11.366;2022-11-15T10:10:52;24.60;91.10
17948;DHT22;9099;47.958;11.366;2022-11-15T10:13:24;24.90;91.10
17948;DHT22;9099;47.958;11.366;2022-11-15T10:15:53;24.70;91.50
17948;DHT22;9099;47.958;11.366;2022-11-15T10:18:25;24.50;90.40
17948;DHT22;9099;47.958;11.366;2022-11-15T10:20:58;24.10;91.90
17948;DHT22;9099;47.958;11.366;2022-11-15T10:23:27;24.20;90.50
17948;DHT22;9099;47.958;11.366;2022-11-15T10:25:57;24.20;91.40
17948;DHT22;9099;47.958;11.366;2022-11-15T10:28:27;24.50;91.80
17948;DHT22;9099;47.958;11.366;2022-11-15T10:30:56;24.40;93.10
17948;DHT22;9099;47.958;11.366;2022-11-15T10:33:26;23.60;92.60
17948;DHT22;9099;47.958;11.366;2022-11-15T10:36:15;23.70;93.40
17948;DHT22;9099;47.958;11.366;2022-11-15T10:38:55;23.80;92.70
17948;DHT22;9099;47.958;11.366;2022-11-15T10:41:30;23.50;93.70
17948;DHT22;9099;47.958;11.366;2022-11-15T10:44:20;23.60;93.20
17948;DHT22;9099;47.958;11.366;2022-11-15T10:46:48;23.60;92.10
17948;DHT22;9099;47.958;11.366;2022-11-15T10:49:31;23.30;91.60
17948;DHT22;9099;47.958;11.366;2022-11-15T10:52:00;23.10;92.60
17948;DHT22;9099;47.958;11.366;2022-11-15T10:54:33;22.80;92.80
17948;DHT22;9099;47.958;11.366;2022-11-15T10:57:08;22.60;92.90
17948;DHT22;9099;47.958;11.366;2022-11-15T10:59:37;22.50;93.00
17948;DHT22;9099;47.958;11.366;2022-11-15T11:02:27;22.50;93.70
17948;DHT22;9099;47.958;11.366;2022-11-15T11:04:55;22.50;95.20
17948;DHT22;9099;47.958;11.366;2022-11-15T11:07:24;22.60;92.30
17948;DHT22;9099;47.958;11.366;2022-11-15T11:09:59;22.10;95.00
17948;DHT22;9099;47.958;11.366;2022-11-15T11:12:31;22.50;95.10
17948;DHT22;9099;47.958;11.366;2022-11-15T11:14:59;22.30;93.40
17948;DHT22;9099;47.958;11.366;2022-11-15T11:17:36;21.90;93.80
17948;DHT22;9099;47.958;11.366;2022-11-15T11:20:12;21.80;93.90
17948;DHT22;9099;47.958;11.366;2022-11-15T11:22:55;21.80;95.10
17948;DHT22;9099;47.958;11.366;2022-11-15T11:25:32;21.60;95.30
17948;DHT22;9099;47.958;11.366;2022-11-15T11:28:14;21.10;94.80
17948;DHT22;9099;47.958;11.366;2022-11-15T11:30:50;20.60;95.70
17948;DHT22;9099;47.958;11.366;2022-11-15T11:33:22;20.60;96.00
17948;DHT22;9099;47.958;11.366;2022-11-15T11:36:03;20.60;95.60
17948;DHT22;9099;47.958;11.366;2022-11-15T11:38:49;20.90;96.70
17948;DHT22;9099;47.958;11.366;2022-11-15T11:41:29;21.20;96.60
17948;DHT22;9099;47.958;11.366;2022-11-15T11:44:10;21.50;95.70
17948;DHT22;9099;47.958;11.366;2022-11-15T11:46:55;21.80;94.90
17948;DHT22;9099;47.958;11.366;2022-11-15T11:49:26;21.50;94.50
17948;DHT22;9099;47.958;11.366;2022-11-15T11:52:03;21.30;95.40
17948;DHT22;9099;47.958;11.366;2022-11-15T11:54:38;21.20;97.00
17948;DHT22;9099;47.958;11.366;2022-11-15T11:57:19;21.30;94.40
17948;DHT22;9099;47.958;11.366;2022-11-15T11:59:52;21.40;96.70
17948;DHT22;9099;47.958;11.366;2022-11-15T12:02:27;21.60;95.40
17948;DHT22;9099;47.958;11.366;2022-11-15T12:05:01;21.20;95.20
17948;DHT22;9099;47.958;11.366;2022-11-15T12:07:32;21.20;96.70
17948;DHT22;9099;47.958;11.366;2022-11-15T12:10:04;21.20;95.60
17948;DHT22;9099;47.958;11.366;2022-11-15T12:12:38;20.80;95.80
17948;DHT22;9099;47.958;11.366;2022-11-15T12:15:13;20.30;96.50
17948;DHT22;9099;47.958;11.366;2022-11-15T12:17:42;19.70;98.50
17948;DHT22;9099;47.958;11.366;2022-11-15T12:20:16;19.50;97.60
17948;DHT22;9099;47.958;11.366;2022-11-15T12:22:48;19.30;98.10
17948;DHT22;9099;47.958;11.366;2022-11-15T12:25:19;19.10;98.60
17948;DHT22;9099;47.958;11.366;2022-11-15T12:27:53;19.20;99.30
17948;DHT22;9099;47.958;11.366;2022-11-15T12:30:22;19.20;98.10
17948;DHT22;9099;47.958;11.366;2022-11-15T12:32:52;19.50;99.70
17948;DHT22;9099;47.958;11.366;2022-11-15T12:35:27;20.20;98.00
17948;DHT22;9099;47.958;11.366;2022-11-15T12:37:57;20.40;97.10
17948;DHT22;9099;47.958;11.366;2022-11-15T12:40:35;20.60;98.20
17948;DHT22;9099;47.958;11.366;2022-11-15T12:46:11;20.20;96.40
17948;DHT22;9099;47.958;11.366;2022-11-15T12:48:57;19.80;97.00
17948;DHT22;9099;47.958;11.366;2022-11-15T12:57:39;19.00;98.10
17948;DHT22;9099;47.958;11.366;2022-11-15T13:03:25;18.60;98.00
17948;DHT22;9099;47.958;11.366;2022-11-15T13:05:58;18.70;98.80
17948;DHT22;9099;47.958;11.366;2022-11-15T13:08:37;18.70;98.60
17948;DHT22;9099;47.958;11.366;2022-11-15T13:14:46;18.60;98.60
17948;DHT22;9099;47.958;11.366;2022-11-15T13:17:35;18.60;99.10
17948;DHT22;9099;47.958;11.366;2022-11-15T13:20:23;18.90;99.40
17948;DHT22;9099;47.958;11.366;2022-11-15T13:22:58;19.00;99.30
17948;DHT22;9099;47.958;11.366;2022-11-15T13:26:09;19.00;98.30
17948;DHT22;9099;47.958;11.366;2022-11-15T13:28:38;18.90;97.90
17948;DHT22;9099;47.958;11.366;2022-11-15T13:31:23;19.10;98.40
17948;DHT22;9099;47.958;11.366;2022-11-15T13:33:51;19.10;98.50
17948;DHT22;9099;47.958;11.366;2022-11-15T13:36:22;19.30;98.80
17948;DHT22;9099;47.958;11.366;2022-11-15T13:38:56;19.20;96.00
17948;DHT22;9099;47.958;11.366;2022-11-15T13:41:25;19.00;97.20
17948;DHT22;9099;47.958;11.366;2022-11-15T13:43:53;18.90;97.80
17948;DHT22;9099;47.958;11.366;2022-11-15T13:46:22;18.90;97.80
17948;DHT22;9099;47.958;11.366;2022-11-15T13:48:53;19.00;97.00
17948;DHT22;9099;47.958;11.366;2022-11-15T13:51:35;19.10;97.40
17948;DHT22;9099;47.958;11.366;2022-11-15T13:54:09;19.30;96.30
17948;DHT22;9099;47.958;11.366;2022-11-15T13:56:42;19.40;96.80
17948;DHT22;9099;47.958;11.366;2022-11-15T13:59:13;19.20;97.50
17948;DHT22;9099;47.958;11.366;2022-11-15T14:01:42;19.10;97.80
17948;DHT22;9099;47.958;11.366;2022-11-15T14:04:11;19.20;97.40
17948;DHT22;9099;47.958;11.366;2022-11-15T14:06:46;19.20;98.20
17948;DHT22;9099;47.958;11.366;2022-11-15T14:09:29;19.10;97.60
17948;DHT22;9099;47.958;11.366;2022-11-15T14:11:58;19.10;97.30
17948;DHT22;9099;47.958;11.366;2022-11-15T14:14:26;18.90;97.80
17948;DHT22;9099;47.958;11.366;2022-11-15T14:16:55;18.70;98.00
17948;DHT22;9099;47.958;11.366;2022-11-15T14:19:36;18.50;98.30
17948;DHT22;9099;47.958;11.366;2022-11-15T14:22:17;18.30;98.50
17948;DHT22;9099;47.958;11.366;2022-11-15T14:24:47;18.20;98.00
17948;DHT22;9099;47.958;11.366;2022-11-15T14:27:29;17.80;98.10
17948;DHT22;9099;47.958;11.366;2022-11-15T14:29:56;17.70;99.30
17948;DHT22;9099;47.958;11.366;2022-11-15T14:32:24;17.50;99.90
17948;DHT22;9099;47.958;11.366;2022-11-15T14:34:54;17.30;99.90
17948;DHT22;9099;47.958;11.366;2022-11-15T14:37:25;17.20;99.70
17948;DHT22;9099;47.958;11.366;2022-11-15T14:39:52;16.90;99.90
17948;DHT22;9099;47.958;11.366;2022-11-15T14:42:20;16.60;99.90
17948;DHT22;9099;47.958;11.366;2022-11-15T14:44:47;16.40;99.90
17948;DHT22;9099;47.958;11.366;2022-11-15T14:47:14;16.20;99.90
17948;DHT22;9099;47.958;11.366;2022-11-15T14:49:41;16.00;99.90
17948;DHT22;9099;47.958;11.366;2022-11-15T14:52:25;15.70;99.90
17948;DHT22;9099;47.958;11.366;2022-11-15T14:54:53;15.50;99.90
17948;DHT22;9099;47.958;11.366;2022-11-15T14:57:20;15.30;99.90
17948;DHT22;9099;47.958;11.366;2022-11-15T14:59:47;15.30;99.90
17948;DHT22;9099;47.958;11.366;2022-11-15T15:02:17;15.10;99.90
17948;DHT22;9099;47.958;11.366;2022-11-15T15:04:45;15.10;99.90
17948;DHT22;9099;47.958;11.366;2022-11-15T15:07:12;14.90;99.90
17948;DHT22;9099;47.958;11.366;2022-11-15T15:09:40;14.80;99.90
17948;DHT22;9099;47.958;11.366;2022-11-15T15:12:16;14.70;99.90
17948;DHT22;9099;47.958;11.366;2022-11-15T15:14:44;14.50;99.90
17948;DHT22;9099;47.958;11.366;2022-11-15T15:17:11;14.30;99.90
17948;DHT22;9099;47.958;11.366;2022-11-15T15:19:38;14.20;99.90
17948;DHT22;9099;47.958;11.366;2022-11-15T15:22:05;14.10;99.90
17948;DHT22;9099;47.958;11.366;2022-11-15T15:24:32;13.90;99.90
17948;DHT22;9099;47.958;11.366;2022-11-15T15:27:00;13.90;99.90
17948;DHT22;9099;47.958;11.366;2022-11-15T15:29:27;13.80;99.90
17948;DHT22;9099;47.958;11.366;2022-11-15T15:31:54;13.60;99.90
17948;DHT22;9099;47.958;11.366;2022-11-15T15:34:21;13.50;99.90
17948;DHT22;9099;47.958;11.366;2022-11-15T15:36:48;13.50;99.90
17948;DHT22;9099;47.958;11.366;2022-11-15T15:39:15;13.40;99.90
17948;DHT22;9099;47.958;11.366;2022-11-15T15:41:42;13.40;99.90
17948;DHT22;9099;47.958;11.366;2022-11-15T15:44:10;13.30;99.90
17948;DHT22;9099;47.958;11.366;2022-11-15T15:46:37;13.30;99.90
17948;DHT22;9099;47.958;11.366;2022-11-15T15:49:03;13.20;99.90
17948;DHT22;9099;47.958;11.366;2022-11-15T15:51:30;13.20;99.90
17948;DHT22;9099;47.958;11.366;2022-11-15T15:53:57;13.20;99.90
17948;DHT22;9099;47.958;11.366;2022-11-15T15:56:24;13.10;99.90
17948;DHT22;9099;47.958;11.366;2022-11-15T15:58:51;13.10;99.90
17948;DHT22;9099;47.958;11.366;2022-11-15T16:01:19;13.10;99.90
17948;DHT22;9099;47.958;11.366;2022-11-15T16:03:46;13.10;99.90
17948;DHT22;9099;47.958;11.366;2022-11-15T16:06:34;13.00;99.90
17948;DHT22;9099;47.958;11.366;2022-11-15T16:09:02;13.00;99.90
17948;DHT22;9099;47.958;11.366;2022-11-15T16:11:29;12.90;99.90
17948;DHT22;9099;47.958;11.366;2022-11-15T16:13:56;12.90;99.90
17948;DHT22;9099;47.958;11.366;2022-11-15T16:16:24;12.90;99.90
17948;DHT22;9099;47.958;11.366;2022-11-15T16:18:51;12.90;99.90